Mountain Springs, Nevada
Current Conditions -  °F | °C
As of 9:56 AM on Monday 24 Nov 2014 (Local Time) from KHND Reporting Station
Clear Clear  
Wind Chill: 53°   Ceiling: Unl
Heat Index: 53°   Visibility: 10mi
Dew Point: 12°   Wind: 3mph
Humidity: 20%   Direction: 320°NW
Pressure: 30.4"   Gusts: NA
Location:  35.8437°N, 115.134°W
Report Text: KHND 241756Z 32003KT 10SM CLR 12/M11 A3040 RMK AO2 51020 T01161111 10116 20016 SLP297
Loading
Personal Weather Stations






























Interactive Weather Map New forecast layout! Learn more

10-Day Weather Forecast

Advertisements
Track Severe Weather on mobile